| time (UTC) | temp C | wind direction | speed KPH | gust KPH | rain 1hr cm | rain 24hr cm | rain mn cm | humidity % | barometer mb |
| 20260506183048 | 16 | 360 | 4.8 | 22.5 | 0.00 | 0.41 | 0.41 | 63 | 1008.3 |
| 20260506182819 | 16 | 217 | 9.7 | 35.4 | 0.00 | 2.01 | 0.41 | 63 | 1008.7 |
| 20260506182330 | 16 | 360 | 11.3 | 35.4 | 0.00 | 2.01 | 0.41 | 63 | 1008.7 |
| 20260506181813 | 16 | 360 | 11.3 | 30.6 | 0.00 | 2.01 | 0.41 | 64 | 1008.9 |
| 20260506181604 | 16 | 360 | 11.3 | 30.6 | 0.00 | 0.41 | 0.41 | 64 | 1008.4 |
| 20260506181316 | 16 | 360 | 14.5 | 29.0 | 0.00 | 2.01 | 0.41 | 64 | 1008.8 |
| 20260506180819 | 16 | 360 | 9.7 | 27.4 | 0.00 | 2.01 | 0.41 | 64 | 1008.9 |
| 20260506180330 | 16 | 360 | 12.9 | 32.2 | 0.10 | 2.01 | 0.41 | 64 | 1009.0 |
| 20260506175813 | 16 | 360 | 12.9 | 32.2 | 0.10 | 2.01 | 0.41 | 64 | 1009.0 |
| 20260506175344 | 16 | 360 | 12.9 | 30.6 | 0.10 | 2.01 | 0.41 | 64 | 1008.9 |
| 20260506174555 | 16 | 360 | 11.3 | 32.2 | 0.03 | 0.41 | 0.41 | 64 | 1008.5 |
| 20260506174310 | 16 | 244 | 11.3 | 29.0 | 0.10 | 2.01 | 0.41 | 64 | 1009.0 |
| 20260506173816 | 16 | 360 | 12.9 | 29.0 | 0.10 | 2.01 | 0.41 | 64 | 1009.0 |
| 20260506173326 | 16 | 360 | 9.7 | 29.0 | 0.10 | 2.01 | 0.41 | 64 | 1009.0 |
| 20260506173008 | 16 | 360 | 11.3 | 29.0 | 0.03 | 0.41 | 0.41 | 65 | 1008.5 |
| 20260506172810 | 16 | 360 | 14.5 | 29.0 | 0.10 | 2.01 | 0.41 | 65 | 1009.0 |
| 20260506172315 | 16 | 360 | 9.7 | 20.9 | 0.10 | 2.01 | 0.41 | 65 | 1009.0 |
| 20260506171819 | 16 | 360 | 9.7 | 19.3 | 0.10 | 2.01 | 0.41 | 65 | 1009.1 |
| 20260506171514 | 16 | 360 | 8.0 | 30.6 | 0.03 | 0.41 | 0.41 | 65 | 1008.5 |
| 20260506171313 | 16 | 360 | 8.0 | 30.6 | 0.10 | 2.01 | 0.41 | 65 | 1009.0 |
| 20260506170818 | 16 | 231 | 12.9 | 30.6 | 0.20 | 2.01 | 0.41 | 65 | 1009.1 |
| 20260506170345 | 16 | 360 | 11.3 | 24.1 | 0.20 | 1.91 | 0.38 | 65 | 1009.3 |
| 20260506170003 | 16 | 360 | 11.3 | 24.1 | 0.05 | 0.38 | 0.38 | 65 | 1008.7 |
| 20260506165811 | 16 | 360 | 9.7 | 24.1 | 0.30 | 1.91 | 0.38 | 65 | 1009.3 |
| 20260506165315 | 16 | 245 | 9.7 | 24.1 | 0.41 | 1.91 | 0.38 | 65 | 1009.2 |
| 20260506164829 | 16 | 360 | 14.5 | 24.1 | 0.41 | 1.91 | 0.38 | 65 | 1009.2 |
| 20260506164515 | 16 | 217 | 11.3 | 22.5 | 0.10 | 0.38 | 0.38 | 65 | 1008.7 |
| 20260506164330 | 16 | 248 | 12.9 | 29.0 | 0.51 | 1.91 | 0.38 | 65 | 1009.0 |
| 20260506163813 | 16 | 240 | 11.3 | 29.0 | 0.61 | 1.91 | 0.38 | 65 | 1009.1 |
| 20260506163324 | 16 | 360 | 11.3 | 20.9 | 0.79 | 1.91 | 0.38 | 65 | 1009.1 |
| 20260506163011 | 16 | 257 | 11.3 | 22.5 | 0.18 | 0.38 | 0.38 | 65 | 1008.7 |
| 20260506162810 | 16 | 360 | 11.3 | 22.5 | 0.99 | 1.91 | 0.38 | 65 | 1009.2 |
| 20260506162312 | 16 | 360 | 8.0 | 20.9 | 0.99 | 1.91 | 0.38 | 65 | 1009.3 |
| 20260506161845 | 16 | 360 | 9.7 | 25.7 | 1.09 | 1.91 | 0.38 | 65 | 1009.2 |
| 20260506161642 | 16 | 360 | 9.7 | 25.7 | 0.23 | 0.38 | 0.38 | 65 | 1008.6 |
| 20260506161327 | 16 | 360 | 9.7 | 25.7 | 1.19 | 1.91 | 0.38 | 65 | 1009.2 |
| 20260506160837 | 16 | 360 | 9.7 | 17.7 | 1.19 | 1.80 | 0.36 | 64 | 1009.5 |
| 20260506160319 | 16 | 360 | 8.0 | 17.7 | 1.19 | 1.70 | 0.33 | 64 | 1009.7 |
| 20260506160045 | 16 | 360 | 6.4 | 16.1 | 0.25 | 0.33 | 0.33 | 64 | 1009.2 |
| 20260506155822 | 16 | 360 | 8.0 | 16.1 | 1.19 | 1.60 | 0.33 | 64 | 1009.9 |
| 20260506155333 | 16 | 360 | 6.4 | 12.9 | 1.19 | 1.50 | 0.30 | 64 | 1010.1 |
| 20260506154816 | 16 | 360 | 6.4 | 12.9 | 1.19 | 1.50 | 0.30 | 64 | 1010.4 |
| 20260506154534 | 16 | 360 | 6.4 | 16.1 | 0.23 | 0.28 | 0.28 | 63 | 1009.9 |
| 20260506154320 | 16 | 360 | 6.4 | 19.3 | 1.19 | 1.40 | 0.28 | 63 | 1010.4 |
| 20260506153829 | 16 | 360 | 8.0 | 20.9 | 1.09 | 1.30 | 0.25 | 63 | 1010.5 |
| 20260506153312 | 16 | 360 | 9.7 | 20.9 | 0.89 | 1.09 | 0.23 | 63 | 1010.4 |
| 20260506153048 | 16 | 360 | 8.0 | 20.9 | 0.18 | 0.20 | 0.20 | 63 | 1009.9 |
| 20260506152814 | 16 | 360 | 8.0 | 22.5 | 0.79 | 0.89 | 0.18 | 63 | 1010.5 |
| 20260506152346 | 16 | 360 | 9.7 | 22.5 | 0.79 | 0.89 | 0.18 | 63 | 1010.4 |
| 20260506151809 | 16 | 360 | 8.0 | 17.7 | 0.79 | 0.79 | 0.15 | 62 | 1010.2 |
| 20260506151538 | 16 | 360 | 9.7 | 19.3 | 0.15 | 0.15 | 0.15 | 62 | 1009.5 |
| 20260506151313 | 16 | 360 | 9.7 | 19.3 | 0.71 | 0.71 | 0.15 | 63 | 1010.1 |
| 20260506150824 | 16 | 360 | 6.4 | 22.5 | 0.61 | 0.61 | 0.13 | 62 | 1010.1 |
| 20260506150354 | 16 | 360 | 6.4 | 19.3 | 0.51 | 0.51 | 0.10 | 62 | 1010.0 |
| 20260506150020 | 16 | 360 | 6.4 | 19.3 | 0.08 | 0.08 | 0.08 | 62 | 1009.4 |
| 20260506145817 | 16 | 360 | 6.4 | 20.9 | 0.41 | 0.41 | 0.08 | 62 | 1010.0 |
| 20260506145322 | 16 | 360 | 9.7 | 27.4 | 0.30 | 0.30 | 0.05 | 62 | 1010.1 |
| 20260506144852 | 17 | 360 | 9.7 | 27.4 | 0.30 | 0.30 | 0.05 | 61 | 1010.2 |
| 20260506144511 | 16 | 360 | 9.7 | 22.5 | 0.05 | 0.05 | 0.05 | 62 | 1009.8 |
| 20260506144314 | 17 | 48 | 11.3 | 22.5 | 0.20 | 0.20 | 0.05 | 62 | 1010.3 |
| 20260506143838 | 17 | 360 | 9.7 | 20.9 | 0.20 | 0.20 | 0.05 | 61 | 1010.3 |
| 20260506143328 | 17 | 211 | 6.4 | 24.1 | 0.20 | 0.20 | 0.05 | 61 | 1010.2 |
| 20260506143006 | 17 | 360 | 9.7 | 24.1 | 0.03 | 0.03 | 0.03 | 60 | 1009.6 |
| 20260506142813 | 17 | 223 | 14.5 | 24.1 | 0.10 | 0.10 | 0.03 | 60 | 1010.1 |
| 20260506142315 | 17 | 360 | 4.8 | 24.1 | 0.10 | 0.10 | 0.03 | 60 | 1010.2 |
| 20260506141819 | 17 | 360 | 11.3 | 27.4 | 0.00 | 0.00 | 0.00 | 58 | 1010.2 |
| 20260506141506 | 17 | 360 | 14.5 | 27.4 | 0.00 | 0.00 | 0.00 | 58 | 1009.8 |
| 20260506141329 | 17 | 360 | 12.9 | 27.4 | 0.00 | 0.00 | 0.00 | 58 | 1010.3 |
| 20260506140813 | 18 | 360 | 9.7 | 27.4 | 0.00 | 0.00 | 0.00 | 57 | 1010.3 |
| 20260506140319 | 18 | 360 | 16.1 | 27.4 | 0.00 | 0.00 | 0.00 | 56 | 1010.2 |
| 20260506140020 | 18 | 207 | 8.0 | 20.9 | 0.00 | 0.00 | 0.00 | 56 | 1009.7 |
| 20260506135828 | 18 | 360 | 4.8 | 30.6 | 0.00 | 0.00 | 0.00 | 56 | 1010.1 |
| 20260506135312 | 18 | 360 | 14.5 | 30.6 | 0.00 | 0.00 | 0.00 | 55 | 1010.0 |
| 20260506134817 | 18 | 360 | 11.3 | 30.6 | 0.00 | 0.00 | 0.00 | 55 | 1010.1 |
| 20260506134535 | 18 | 360 | 9.7 | 25.7 | 0.00 | 0.00 | 0.00 | 55 | 1009.4 |
| 20260506134347 | 18 | 360 | 12.9 | 25.7 | 0.00 | 0.00 | 0.00 | 55 | 1010.1 |
| 20260506133811 | 18 | 360 | 8.0 | 25.7 | 0.00 | 0.00 | 0.00 | 55 | 1010.0 |
| 20260506133310 | 18 | 224 | 11.3 | 25.7 | 0.00 | 0.00 | 0.00 | 55 | 1010.0 |
| 20260506133024 | 18 | 360 | 11.3 | 30.6 | 0.00 | 0.00 | 0.00 | 55 | 1009.4 |
| 20260506132820 | 18 | 248 | 12.9 | 30.6 | 0.00 | 0.00 | 0.00 | 55 | 1010.1 |
| 20260506132325 | 18 | 360 | 9.7 | 24.1 | 0.00 | 0.00 | 0.00 | 55 | 1010.1 |
| 20260506131828 | 18 | 213 | 8.0 | 22.5 | 0.00 | 0.00 | 0.00 | 55 | 1010.0 |
| 20260506131531 | 18 | 360 | 11.3 | 22.5 | 0.00 | 0.00 | 0.00 | 55 | 1009.6 |
| 20260506131337 | 18 | 360 | 12.9 | 22.5 | 0.00 | 0.00 | 0.00 | 55 | 1010.2 |
| 20260506130819 | 18 | 360 | 8.0 | 33.8 | 0.00 | 0.00 | 0.00 | 55 | 1010.2 |
| 20260506130329 | 18 | 360 | 11.3 | 33.8 | 0.00 | 0.00 | 0.00 | 55 | 1010.3 |
| 20260506130016 | 18 | 249 | 16.1 | 33.8 | 0.00 | 0.00 | 0.00 | 55 | 1009.8 |
| 20260506125834 | 18 | 360 | 9.7 | 25.7 | 0.00 | 0.00 | 0.00 | 55 | 1010.3 |
| 20260506125316 | 18 | 175 | 12.9 | 25.7 | 0.00 | 0.00 | 0.00 | 55 | 1010.5 |
| 20260506124847 | 18 | 360 | 11.3 | 30.6 | 0.00 | 0.00 | 0.00 | 55 | 1010.3 |
| 20260506124557 | 18 | 231 | 12.9 | 33.8 | 0.00 | 0.00 | 0.00 | 55 | 1009.9 |
| 20260506124309 | 18 | 360 | 9.7 | 33.8 | 0.00 | 0.00 | 0.00 | 55 | 1010.6 |
| 20260506123814 | 18 | 360 | 14.5 | 33.8 | 0.00 | 0.00 | 0.00 | 54 | 1010.4 |
| 20260506123326 | 18 | 260 | 14.5 | 27.4 | 0.00 | 0.00 | 0.00 | 55 | 1010.2 |
| 20260506123001 | 18 | 360 | 9.7 | 30.6 | 0.00 | 0.00 | 0.00 | 55 | 1009.6 |
| 20260506122827 | 18 | 360 | 9.7 | 30.6 | 0.00 | 0.00 | 0.00 | 55 | 1010.1 |
| 20260506122312 | 18 | 360 | 14.5 | 30.6 | 0.00 | 0.00 | 0.00 | 55 | 1010.3 |
| 20260506121817 | 18 | 360 | 9.7 | 25.7 | 0.00 | 0.00 | 0.00 | 55 | 1010.3 |
| 20260506121508 | 18 | 360 | 11.3 | 24.1 | 0.00 | 0.00 | 0.00 | 55 | 1009.6 |
| 20260506121327 | 18 | 216 | 12.9 | 24.1 | 0.00 | 0.00 | 0.00 | 55 | 1010.2 |
| 20260506120810 | 18 | 360 | 9.7 | 24.1 | 0.00 | 0.00 | 0.00 | 55 | 1010.1 |
| 20260506120316 | 18 | 360 | 11.3 | 24.1 | 0.00 | 0.00 | 0.00 | 55 | 1010.1 |
| 20260506120019 | 18 | 360 | 11.3 | 29.0 | 0.00 | 0.00 | 0.00 | 56 | 1009.4 |
| 20260506115825 | 18 | 360 | 11.3 | 29.0 | 0.00 | 0.00 | 0.00 | 56 | 1010.0 |
| 20260506115330 | 18 | 360 | 14.5 | 29.0 | 0.00 | 0.00 | 0.00 | 56 | 1009.9 |
| 20260506114815 | 18 | 360 | 12.9 | 25.7 | 0.00 | 0.00 | 0.00 | 56 | 1010.1 |
| 20260506114516 | 18 | 360 | 8.0 | 22.5 | 0.00 | 0.00 | 0.00 | 56 | 1009.6 |
| 20260506114326 | 18 | 360 | 8.0 | 20.9 | 0.00 | 0.00 | 0.00 | 56 | 1010.0 |
| 20260506113810 | 18 | 360 | 9.7 | 24.1 | 0.00 | 0.00 | 0.00 | 56 | 1009.9 |
| 20260506113315 | 18 | 360 | 14.5 | 24.1 | 0.00 | 0.00 | 0.00 | 56 | 1009.9 |
| 20260506113026 | 17 | 360 | 9.7 | 20.9 | 0.00 | 0.00 | 0.00 | 56 | 1009.3 |
| 20260506112824 | 18 | 360 | 6.4 | 24.1 | 0.00 | 0.00 | 0.00 | 56 | 1009.9 |
| 20260506112309 | 18 | 360 | 8.0 | 24.1 | 0.00 | 0.00 | 0.00 | 56 | 1009.9 |
| 20260506111813 | 17 | 360 | 11.3 | 27.4 | 0.00 | 0.00 | 0.00 | 57 | 1009.9 |
| 20260506111542 | 17 | 248 | 14.5 | 27.4 | 0.00 | 0.00 | 0.00 | 57 | 1009.2 |
| 20260506111342 | 17 | 240 | 14.5 | 25.7 | 0.00 | 0.00 | 0.00 | 57 | 1009.8 |
| 20260506110825 | 17 | 220 | 8.0 | 27.4 | 0.00 | 0.00 | 0.00 | 57 | 1009.8 |
| 20260506110310 | 17 | 360 | 9.7 | 27.4 | 0.00 | 0.00 | 0.00 | 57 | 1009.8 |
| 20260506110024 | 17 | 360 | 8.0 | 24.1 | 0.00 | 0.00 | 0.00 | 57 | 1009.1 |
| 20260506105820 | 17 | 360 | 12.9 | 24.1 | 0.00 | 0.00 | 0.00 | 57 | 1009.7 |
| 20260506105325 | 17 | 360 | 12.9 | 22.5 | 0.00 | 0.00 | 0.00 | 57 | 1009.8 |
| 20260506104810 | 17 | 360 | 12.9 | 22.5 | 0.00 | 0.00 | 0.00 | 57 | 1009.7 |
| 20260506104546 | 17 | 360 | 9.7 | 20.9 | 0.00 | 0.00 | 0.00 | 57 | 1009.2 |
| 20260506104314 | 17 | 360 | 8.0 | 20.9 | 0.00 | 0.00 | 0.00 | 57 | 1009.8 |
| 20260506103825 | 17 | 360 | 9.7 | 24.1 | 0.00 | 0.00 | 0.00 | 57 | 1009.7 |
| 20260506103331 | 17 | 360 | 12.9 | 24.1 | 0.00 | 0.00 | 0.00 | 57 | 1009.8 |
| 20260506103044 | 17 | 233 | 9.7 | 27.4 | 0.00 | 0.00 | 0.00 | 57 | 1009.1 |
| 20260506102815 | 17 | 360 | 11.3 | 30.6 | 0.00 | 0.00 | 0.00 | 57 | 1009.6 |
| 20260506102326 | 17 | 360 | 14.5 | 30.6 | 0.00 | 0.00 | 0.00 | 57 | 1009.7 |
| 20260506101811 | 17 | 211 | 11.3 | 25.7 | 0.00 | 0.00 | 0.00 | 57 | 1009.7 |
| 20260506101557 | 17 | 360 | 8.0 | 25.7 | 0.00 | 0.00 | 0.00 | 57 | 1009.1 |
| 20260506101314 | 17 | 252 | 9.7 | 25.7 | 0.00 | 0.00 | 0.00 | 57 | 1009.7 |
| 20260506100843 | 17 | 360 | 11.3 | 22.5 | 0.00 | 0.00 | 0.00 | 57 | 1009.6 |
| 20260506100324 | 17 | 360 | 8.0 | 24.1 | 0.00 | 0.00 | 0.00 | 56 | 1009.6 |
| 20260506100024 | 17 | 360 | 11.3 | 24.1 | 0.00 | 0.00 | 0.00 | 56 | 1009.2 |
| 20260506095832 | 18 | 360 | 11.3 | 22.5 | 0.00 | 0.00 | 0.00 | 56 | 1009.7 |
| 20260506095317 | 18 | 360 | 6.4 | 22.5 | 0.00 | 0.00 | 0.00 | 56 | 1009.8 |
| 20260506094820 | 18 | 261 | 8.0 | 20.9 | 0.00 | 0.00 | 0.00 | 56 | 1009.7 |
| 20260506094537 | 17 | 360 | 8.0 | 32.2 | 0.00 | 0.00 | 0.00 | 56 | 1009.2 |
| 20260506094324 | 18 | 360 | 9.7 | 32.2 | 0.00 | 0.00 | 0.00 | 56 | 1009.8 |
| 20260506093836 | 18 | 360 | 11.3 | 22.5 | 0.00 | 0.00 | 0.00 | 56 | 1009.8 |
| 20260506093320 | 18 | 360 | 11.3 | 24.1 | 0.00 | 0.00 | 0.00 | 56 | 1009.8 |
| 20260506093040 | 18 | 360 | 6.4 | 24.1 | 0.00 | 0.00 | 0.00 | 56 | 1009.4 |
| 20260506092830 | 18 | 360 | 11.3 | 24.1 | 0.00 | 0.00 | 0.00 | 56 | 1009.9 |
| 20260506092315 | 18 | 360 | 9.7 | 19.3 | 0.00 | 0.00 | 0.00 | 55 | 1009.9 |
| 20260506091820 | 18 | 254 | 8.0 | 25.7 | 0.00 | 0.00 | 0.00 | 55 | 1009.8 |
| 20260506091548 | 18 | 360 | 6.4 | 25.7 | 0.00 | 0.00 | 0.00 | 55 | 1009.2 |
| 20260506091324 | 18 | 360 | 6.4 | 25.7 | 0.00 | 0.00 | 0.00 | 55 | 1009.8 |
| 20260506090835 | 18 | 241 | 4.8 | 27.4 | 0.00 | 0.00 | 0.00 | 55 | 1009.8 |
| 20260506090320 | 18 | 360 | 12.9 | 27.4 | 0.00 | 0.00 | 0.00 | 55 | 1009.8 |
| 20260506090052 | 18 | 360 | 9.7 | 19.3 | 0.00 | 0.00 | 0.00 | 55 | 1009.3 |
| 20260506085823 | 18 | 360 | 6.4 | 19.3 | 0.00 | 0.00 | 0.00 | 54 | 1009.9 |
| 20260506085335 | 18 | 205 | 9.7 | 24.1 | 0.00 | 0.00 | 0.00 | 54 | 1009.9 |
| 20260506084820 | 18 | 360 | 11.3 | 24.1 | 0.00 | 0.00 | 0.00 | 54 | 1009.9 |
| 20260506084506 | 18 | 360 | 6.4 | 22.5 | 0.00 | 0.00 | 0.00 | 54 | 1009.4 |
| 20260506084324 | 18 | 360 | 8.0 | 22.5 | 0.00 | 0.00 | 0.00 | 54 | 1010.0 |
| 20260506083812 | 18 | 360 | 11.3 | 20.9 | 0.00 | 0.00 | 0.00 | 55 | 1010.0 |
| 20260506083317 | 18 | 360 | 8.0 | 19.3 | 0.00 | 0.00 | 0.00 | 55 | 1010.0 |
| 20260506083020 | 18 | 251 | 8.0 | 19.3 | 0.00 | 0.00 | 0.00 | 55 | 1009.6 |
| 20260506082844 | 18 | 360 | 6.4 | 19.3 | 0.00 | 0.00 | 0.00 | 55 | 1010.0 |
| 20260506082312 | 18 | 360 | 12.9 | 25.7 | 0.00 | 0.00 | 0.00 | 55 | 1010.0 |
| 20260506081815 | 18 | 236 | 8.0 | 25.7 | 0.00 | 0.00 | 0.00 | 55 | 1010.0 |
| 20260506081614 | 18 | 232 | 9.7 | 25.7 | 0.00 | 0.00 | 0.00 | 55 | 1009.6 |
| 20260506081314 | 18 | 360 | 9.7 | 19.3 | 0.00 | 0.00 | 0.00 | 55 | 1010.1 |
| 20260506080817 | 18 | 360 | 4.8 | 19.3 | 0.00 | 0.00 | 0.00 | 55 | 1010.1 |
| 20260506080345 | 18 | 360 | 9.7 | 19.3 | 0.00 | 0.00 | 0.00 | 55 | 1010.2 |
| 20260506073341 | 18 | 360 | 8.0 | 22.5 | 0.00 | 0.00 | 0.00 | 54 | 1010.2 |
| 20260506073041 | 18 | 229 | 8.0 | 22.5 | 0.00 | 0.00 | 0.00 | 54 | 1009.7 |
| 20260506072830 | 18 | 360 | 9.7 | 20.9 | 0.00 | 0.00 | 0.00 | 54 | 1010.3 |
| 20260506072318 | 18 | 360 | 9.7 | 20.9 | 0.00 | 0.00 | 0.00 | 54 | 1010.3 |
| 20260506071822 | 19 | 250 | 6.4 | 20.9 | 0.00 | 0.00 | 0.00 | 54 | 1010.3 |
| 20260506071545 | 18 | 360 | 11.3 | 20.9 | 0.00 | 0.00 | 0.00 | 54 | 1009.8 |
| 20260506071331 | 19 | 237 | 11.3 | 19.3 | 0.00 | 0.00 | 0.00 | 53 | 1010.2 |
| 20260506070815 | 19 | 360 | 6.4 | 19.3 | 0.00 | 0.00 | 0.00 | 53 | 1010.4 |
| 20260506070318 | 19 | 360 | 6.4 | 19.3 | 0.00 | 0.00 | 0.00 | 53 | 1010.3 |
| 20260506062348 | 20 | 360 | 11.3 | 25.7 | 0.00 | 0.00 | 0.00 | 51 | 1010.6 |
| 20260506061810 | 20 | 360 | 11.3 | 25.7 | 0.00 | 0.00 | 0.00 | 51 | 1010.6 |
| 20260506061523 | 19 | 360 | 8.0 | 25.7 | 0.00 | 0.00 | 0.00 | 51 | 1010.1 |
| 20260506061321 | 20 | 360 | 8.0 | 25.7 | 0.00 | 0.00 | 0.00 | 51 | 1010.5 |
| 20260506060824 | 20 | 360 | 9.7 | 27.4 | 0.00 | 0.00 | 0.00 | 51 | 1010.6 |
| 20260506060335 | 19 | 244 | 11.3 | 27.4 | 0.00 | 0.00 | 0.00 | 51 | 1010.6 |
| 20260506050835 | 19 | 205 | 9.7 | 19.3 | 0.00 | 0.00 | 0.00 | 48 | 1011.0 |
| 20260506050346 | 19 | 360 | 8.0 | 19.3 | 0.00 | 0.00 | 0.00 | 48 | 1011.0 |
| 20260506044829 | 19 | 360 | 6.4 | 20.9 | 0.00 | 0.00 | 0.00 | 48 | 1011.0 |
| 20260506044542 | 19 | 234 | 8.0 | 20.9 | 0.00 | 0.00 | 0.00 | 48 | 1010.5 |
| 20260506044333 | 19 | 246 | 6.4 | 20.9 | 0.00 | 0.00 | 0.00 | 48 | 1010.9 |
| 20260506043817 | 19 | 360 | 8.0 | 14.5 | 0.00 | 0.00 | 0.00 | 48 | 1011.1 |
| 20260506043344 | 19 | 240 | 4.8 | 17.7 | 0.00 | 0.00 | 0.00 | 48 | 1011.1 |
| 20260506043051 | 19 | 360 | 4.8 | 19.3 | 0.00 | 0.00 | 0.00 | 48 | 1010.6 |
| 20260506042855 | 19 | 360 | 6.4 | 19.3 | 0.00 | 0.00 | 0.00 | 48 | 1011.0 |
| 20260506042319 | 19 | 252 | 8.0 | 19.3 | 0.00 | 0.00 | 0.00 | 48 | 1011.0 |
| 20260506041824 | 19 | 360 | 6.4 | 20.9 | 0.00 | 0.00 | 0.00 | 47 | 1011.0 |
| 20260506041558 | 19 | 360 | 4.8 | 20.9 | 0.00 | 0.00 | 0.00 | 47 | 1010.6 |
| 20260506041334 | 20 | 360 | 6.4 | 20.9 | 0.00 | 0.00 | 0.00 | 47 | 1011.0 |
| 20260506040818 | 20 | 360 | 8.0 | 16.1 | 0.00 | 0.00 | 0.00 | 47 | 1011.0 |
| 20260506040322 | 20 | 240 | 4.8 | 12.9 | 0.00 | 0.00 | 0.00 | 47 | 1011.1 |
| 20260506040029 | 19 | 360 | 4.8 | 19.3 | 0.00 | 0.00 | 0.00 | 46 | 1010.5 |
| 20260506035810 | 20 | 241 | 4.8 | 19.3 | 0.00 | 0.00 | 0.00 | 46 | 1011.0 |
| 20260506035320 | 20 | 360 | 6.4 | 19.3 | 0.00 | 0.00 | 0.00 | 46 | 1010.9 |
| 20260506034824 | 20 | 360 | 4.8 | 20.9 | 0.00 | 0.00 | 0.00 | 46 | 1011.1 |
| 20260506034614 | 20 | 360 | 6.4 | 20.9 | 0.00 | 0.00 | 0.00 | 46 | 1010.4 |
| 20260506034352 | 20 | 360 | 6.4 | 20.9 | 0.00 | 0.00 | 0.00 | 45 | 1011.0 |
| 20260506033819 | 20 | 360 | 6.4 | 17.7 | 0.00 | 0.00 | 0.00 | 45 | 1010.8 |
| 20260506033323 | 20 | 360 | 8.0 | 16.1 | 0.00 | 0.00 | 0.00 | 44 | 1010.9 |
| 20260506033036 | 20 | 360 | 4.8 | 16.1 | 0.00 | 0.00 | 0.00 | 44 | 1010.4 |
| 20260506032832 | 20 | 360 | 8.0 | 16.1 | 0.00 | 0.00 | 0.00 | 44 | 1010.8 |
| 20260506032337 | 20 | 360 | 8.0 | 20.9 | 0.00 | 0.00 | 0.00 | 44 | 1010.8 |
| 20260506031820 | 20 | 360 | 9.7 | 20.9 | 0.00 | 0.00 | 0.00 | 43 | 1010.8 |
| 20260506031516 | 20 | 240 | 4.8 | 25.7 | 0.00 | 0.00 | 0.00 | 43 | 1010.3 |
| 20260506031329 | 21 | 360 | 6.4 | 25.7 | 0.00 | 0.00 | 0.00 | 43 | 1010.8 |
| 20260506030814 | 21 | 360 | 8.0 | 22.5 | 0.00 | 0.00 | 0.00 | 42 | 1010.9 |
| 20260506030345 | 21 | 360 | 8.0 | 16.1 | 0.00 | 0.00 | 0.00 | 42 | 1010.9 |
| 20260506030009 | 21 | 252 | 6.4 | 16.1 | 0.00 | 0.00 | 0.00 | 41 | 1010.4 |
| 20260506025827 | 21 | 360 | 9.7 | 19.3 | 0.00 | 0.00 | 0.00 | 41 | 1010.8 |
| 20260506025312 | 21 | 360 | 6.4 | 22.5 | 0.00 | 0.00 | 0.00 | 41 | 1010.9 |
| 20260506024817 | 21 | 360 | 9.7 | 22.5 | 0.00 | 0.00 | 0.00 | 41 | 1010.9 |
| 20260506024524 | 21 | 360 | 6.4 | 19.3 | 0.00 | 0.00 | 0.00 | 40 | 1010.4 |
| 20260506024327 | 21 | 360 | 8.0 | 19.3 | 0.00 | 0.00 | 0.00 | 40 | 1010.9 |
| 20260506023812 | 21 | 261 | 9.7 | 19.3 | 0.00 | 0.00 | 0.00 | 40 | 1010.9 |
| 20260506023317 | 21 | 360 | 11.3 | 17.7 | 0.00 | 0.00 | 0.00 | 39 | 1010.9 |
| 20260506023100 | 21 | 360 | 4.8 | 17.7 | 0.00 | 0.00 | 0.00 | 39 | 1010.4 |
| 20260506022847 | 21 | 254 | 6.4 | 16.1 | 0.00 | 0.00 | 0.00 | 39 | 1011.0 |
| 20260506022310 | 21 | 360 | 6.4 | 17.7 | 0.00 | 0.00 | 0.00 | 38 | 1010.9 |
| 20260506021835 | 21 | 360 | 6.4 | 17.7 | 0.00 | 0.00 | 0.00 | 38 | 1010.9 |
| 20260506021501 | 21 | 360 | 6.4 | 17.7 | 0.00 | 0.00 | 0.00 | 37 | 1010.5 |
| 20260506021321 | 22 | 360 | 6.4 | 17.7 | 0.00 | 0.00 | 0.00 | 37 | 1010.7 |
| 20260506020826 | 22 | 360 | 9.7 | 14.5 | 0.00 | 0.00 | 0.00 | 37 | 1010.8 |
| 20260506020338 | 22 | 360 | 8.0 | 19.3 | 0.00 | 0.00 | 0.00 | 37 | 1010.8 |
| 20260506020052 | 21 | 360 | 4.8 | 19.3 | 0.00 | 0.00 | 0.00 | 36 | 1010.4 |
| 20260506015819 | 22 | 360 | 8.0 | 19.3 | 0.00 | 0.00 | 0.00 | 36 | 1010.7 |
| 20260506015350 | 22 | 360 | 4.8 | 19.3 | 0.00 | 0.00 | 0.00 | 36 | 1010.7 |
| 20260506014813 | 22 | 360 | 6.4 | 16.1 | 0.00 | 0.00 | 0.00 | 35 | 1010.6 |
| 20260506014545 | 22 | 252 | 8.0 | 19.3 | 0.00 | 0.00 | 0.00 | 35 | 1010.1 |
| 20260506014317 | 22 | 254 | 9.7 | 19.3 | 0.00 | 0.00 | 0.00 | 35 | 1010.6 |
| 20260506013828 | 22 | 360 | 11.3 | 19.3 | 0.00 | 0.00 | 0.00 | 35 | 1010.5 |
| 20260506013312 | 22 | 360 | 4.8 | 22.5 | 0.00 | 0.00 | 0.00 | 34 | 1010.6 |
| 20260506013059 | 22 | 252 | 8.0 | 22.5 | 0.00 | 0.00 | 0.00 | 34 | 1010.1 |
| 20260506012816 | 22 | 360 | 9.7 | 16.1 | 0.00 | 0.00 | 0.00 | 34 | 1010.4 |
| 20260506012320 | 22 | 360 | 6.4 | 19.3 | 0.00 | 0.00 | 0.00 | 33 | 1010.4 |
| 20260506011831 | 22 | 360 | 9.7 | 22.5 | 0.00 | 0.00 | 0.00 | 33 | 1010.4 |
| 20260506011501 | 22 | 360 | 8.0 | 22.5 | 0.00 | 0.00 | 0.00 | 33 | 1009.9 |
| 20260506011314 | 23 | 360 | 11.3 | 22.5 | 0.00 | 0.00 | 0.00 | 33 | 1010.3 |
| 20260506010819 | 23 | 360 | 8.0 | 20.9 | 0.00 | 0.00 | 0.00 | 32 | 1010.3 |
| 20260506010330 | 23 | 248 | 8.0 | 19.3 | 0.00 | 0.00 | 0.00 | 32 | 1010.3 |
| 20260506010016 | 23 | 360 | 9.7 | 25.7 | 0.00 | 0.00 | 0.00 | 32 | 1009.9 |
| 20260506005814 | 23 | 242 | 6.4 | 25.7 | 0.00 | 0.00 | 0.00 | 32 | 1010.4 |
| 20260506005337 | 23 | 251 | 12.9 | 25.7 | 0.00 | 0.00 | 0.00 | 31 | 1010.3 |
| 20260506004827 | 23 | 360 | 11.3 | 33.8 | 0.00 | 0.00 | 0.00 | 31 | 1010.1 |
| 20260506004518 | 23 | 360 | 11.3 | 33.8 | 0.00 | 0.00 | 0.00 | 31 | 1009.7 |
| 20260506004333 | 23 | 360 | 8.0 | 25.7 | 0.00 | 0.00 | 0.00 | 31 | 1010.1 |
| 20260506003817 | 23 | 228 | 11.3 | 27.4 | 0.00 | 0.00 | 0.00 | 30 | 1010.0 |
| 20260506003328 | 23 | 360 | 12.9 | 27.4 | 0.00 | 0.00 | 0.00 | 30 | 1010.0 |
| 20260506003003 | 23 | 360 | 8.0 | 20.9 | 0.00 | 0.00 | 0.00 | 30 | 1009.6 |
| 20260506002811 | 23 | 360 | 9.7 | 20.9 | 0.00 | 0.00 | 0.00 | 30 | 1010.0 |
| 20260506002316 | 23 | 360 | 11.3 | 20.9 | 0.00 | 0.00 | 0.00 | 30 | 1010.0 |
| 20260506001829 | 24 | 360 | 11.3 | 25.7 | 0.00 | 0.00 | 0.00 | 29 | 1010.0 |
| 20260506001505 | 23 | 360 | 11.3 | 25.7 | 0.00 | 0.00 | 0.00 | 29 | 1009.4 |
| 20260506001312 | 24 | 360 | 11.3 | 25.7 | 0.00 | 0.00 | 0.00 | 29 | 1009.8 |
| 20260506000817 | 24 | 360 | 16.1 | 27.4 | 0.00 | 0.00 | 0.00 | 29 | 1009.8 |
| 20260506000323 | 24 | 360 | 12.9 | 27.4 | 0.00 | 0.00 | 0.00 | 29 | 1009.8 |
| 20260506000025 | 24 | 360 | 11.3 | 24.1 | 0.00 | 0.00 | 0.00 | 29 | 1009.3 |
| 20260505235831 | 25 | 360 | 11.3 | 24.1 | 0.00 | 0.00 | 0.00 | 28 | 1009.7 |
| 20260505235316 | 25 | 360 | 9.7 | 24.1 | 0.00 | 0.00 | 0.00 | 27 | 1009.6 |
| 20260505234820 | 25 | 360 | 6.4 | 20.9 | 0.00 | 0.00 | 0.00 | 26 | 1009.6 |
| 20260505234555 | 25 | 360 | 6.4 | 20.9 | 0.00 | 0.00 | 0.00 | 26 | 1009.1 |
| 20260505234331 | 25 | 360 | 8.0 | 20.9 | 0.00 | 0.00 | 0.00 | 25 | 1009.6 |
| 20260505233816 | 25 | 360 | 11.3 | 30.6 | 0.00 | 0.00 | 0.00 | 25 | 1009.6 |
| 20260505233320 | 25 | 360 | 14.5 | 30.6 | 0.00 | 0.00 | 0.00 | 25 | 1009.5 |
| 20260505233049 | 25 | 360 | 8.0 | 30.6 | 0.00 | 0.00 | 0.00 | 25 | 1009.0 |
| 20260505232851 | 25 | 360 | 6.4 | 19.3 | 0.00 | 0.00 | 0.00 | 25 | 1009.4 |
| 20260505232315 | 25 | 360 | 9.7 | 24.1 | 0.00 | 0.00 | 0.00 | 25 | 1009.6 |
| 20260505231820 | 25 | 360 | 14.5 | 24.1 | 0.00 | 0.00 | 0.00 | 25 | 1009.6 |
| 20260505231542 | 25 | 360 | 14.5 | 24.1 | 0.00 | 0.00 | 0.00 | 25 | 1009.1 |
| 20260505231328 | 25 | 360 | 11.3 | 22.5 | 0.00 | 0.00 | 0.00 | 25 | 1009.4 |
| 20260505230813 | 26 | 360 | 8.0 | 22.5 | 0.00 | 0.00 | 0.00 | 24 | 1009.6 |
| 20260505230337 | 26 | 360 | 8.0 | 20.9 | 0.00 | 0.00 | 0.00 | 24 | 1009.4 |
| 20260505230030 | 25 | 360 | 8.0 | 22.5 | 0.00 | 0.00 | 0.00 | 24 | 1008.9 |
| 20260505225826 | 26 | 360 | 12.9 | 22.5 | 0.00 | 0.00 | 0.00 | 24 | 1009.4 |
| 20260505225312 | 26 | 360 | 11.3 | 25.7 | 0.00 | 0.00 | 0.00 | 24 | 1009.4 |
| 20260505224814 | 26 | 360 | 12.9 | 25.7 | 0.00 | 0.00 | 0.00 | 24 | 1009.4 |
| 20260505224540 | 26 | 250 | 14.5 | 25.7 | 0.00 | 0.00 | 0.00 | 23 | 1008.9 |
| 20260505224345 | 26 | 360 | 14.5 | 33.8 | 0.00 | 0.00 | 0.00 | 23 | 1009.4 |
| 20260505223828 | 26 | 360 | 14.5 | 35.4 | 0.00 | 0.00 | 0.00 | 24 | 1009.4 |
| 20260505223312 | 26 | 360 | 19.3 | 35.4 | 0.00 | 0.00 | 0.00 | 24 | 1009.4 |
| 20260505223031 | 26 | 360 | 6.4 | 19.3 | 0.00 | 0.00 | 0.00 | 25 | 1008.9 |
| 20260505222817 | 26 | 360 | 8.0 | 19.3 | 0.00 | 0.00 | 0.00 | 24 | 1009.4 |
| 20260505222328 | 26 | 360 | 11.3 | 32.2 | 0.00 | 0.00 | 0.00 | 24 | 1009.5 |
| 20260505221834 | 26 | 360 | 14.5 | 32.2 | 0.00 | 0.00 | 0.00 | 24 | 1009.5 |
| 20260505221516 | 26 | 360 | 12.9 | 33.8 | 0.00 | 0.00 | 0.00 | 24 | 1009.1 |
| 20260505221322 | 26 | 360 | 14.5 | 33.8 | 0.00 | 0.00 | 0.00 | 23 | 1009.5 |
| 20260505220856 | 26 | 134 | 19.3 | 33.8 | 0.00 | 0.00 | 0.00 | 23 | 1009.5 |
| 20260505220318 | 26 | 360 | 16.1 | 35.4 | 0.00 | 0.00 | 0.00 | 22 | 1009.4 |
| 20260505220013 | 26 | 360 | 16.1 | 35.4 | 0.00 | 0.00 | 0.00 | 22 | 1008.9 |
| 20260505215821 | 27 | 160 | 20.9 | 35.4 | 0.00 | 0.00 | 0.00 | 22 | 1009.5 |
| 20260505215324 | 27 | 360 | 12.9 | 37.0 | 0.00 | 0.00 | 0.00 | 22 | 1009.3 |
| 20260505214835 | 27 | 360 | 19.3 | 37.0 | 0.00 | 0.00 | 0.00 | 22 | 1009.3 |
| 20260505214523 | 26 | 360 | 12.9 | 27.4 | 0.00 | 0.00 | 0.00 | 23 | 1008.8 |
| 20260505214320 | 27 | 360 | 16.1 | 27.4 | 0.00 | 0.00 | 0.00 | 23 | 1009.2 |
| 20260505213825 | 27 | 178 | 9.7 | 35.4 | 0.00 | 0.00 | 0.00 | 23 | 1009.4 |
| 20260505213309 | 27 | 182 | 16.1 | 30.6 | 0.00 | 0.00 | 0.00 | 22 | 1009.4 |
| 20260505213033 | 26 | 360 | 14.5 | 40.2 | 0.00 | 0.00 | 0.00 | 22 | 1008.9 |
| 20260505212815 | 27 | 360 | 17.7 | 40.2 | 0.00 | 0.00 | 0.00 | 22 | 1009.4 |
| 20260505212325 | 27 | 229 | 14.5 | 29.0 | 0.00 | 0.00 | 0.00 | 22 | 1009.3 |
| 20260505211810 | 27 | 229 | 9.7 | 29.0 | 0.00 | 0.00 | 0.00 | 21 | 1009.3 |
| 20260505211554 | 27 | 360 | 9.7 | 29.0 | 0.00 | 0.00 | 0.00 | 22 | 1008.8 |
| 20260505211313 | 27 | 172 | 14.5 | 29.0 | 0.00 | 0.00 | 0.00 | 22 | 1009.4 |
| 20260505210824 | 27 | 360 | 12.9 | 30.6 | 0.00 | 0.00 | 0.00 | 21 | 1009.3 |
| 20260505210309 | 27 | 360 | 14.5 | 33.8 | 0.00 | 0.00 | 0.00 | 21 | 1009.3 |
| 20260505210053 | 27 | 360 | 12.9 | 33.8 | 0.00 | 0.00 | 0.00 | 21 | 1008.8 |
| 20260505205814 | 27 | 360 | 19.3 | 33.8 | 0.00 | 0.00 | 0.00 | 21 | 1009.2 |
| 20260505205346 | 27 | 360 | 14.5 | 30.6 | 0.00 | 0.00 | 0.00 | 21 | 1009.3 |
| 20260505204830 | 27 | 211 | 11.3 | 32.2 | 0.00 | 0.00 | 0.00 | 21 | 1009.2 |
| 20260505204526 | 27 | 360 | 14.5 | 32.2 | 0.00 | 0.00 | 0.00 | 21 | 1008.7 |
| 20260505204312 | 27 | 360 | 16.1 | 32.2 | 0.00 | 0.00 | 0.00 | 21 | 1009.2 |
| 20260505203328 | 27 | 360 | 16.1 | 35.4 | 0.00 | 0.00 | 0.00 | 20 | 1009.2 |
| 20260505203041 | 27 | 360 | 16.1 | 35.4 | 0.00 | 0.00 | 0.00 | 20 | 1008.9 |
| 20260505202837 | 27 | 360 | 14.5 | 35.4 | 0.00 | 0.00 | 0.00 | 20 | 1009.2 |
| 20260505202320 | 27 | 360 | 14.5 | 37.0 | 0.00 | 0.00 | 0.00 | 20 | 1009.4 |
| 20260505201824 | 27 | 229 | 19.3 | 37.0 | 0.00 | 0.00 | 0.00 | 19 | 1009.4 |
| 20260505201524 | 27 | 233 | 14.5 | 37.0 | 0.00 | 0.00 | 0.00 | 19 | 1009.0 |
| 20260505201334 | 27 | 360 | 12.9 | 33.8 | 0.00 | 0.00 | 0.00 | 19 | 1009.5 |
| 20260505200818 | 27 | 360 | 12.9 | 32.2 | 0.00 | 0.00 | 0.00 | 19 | 1009.3 |
| 20260505200322 | 27 | 360 | 14.5 | 40.2 | 0.00 | 0.00 | 0.00 | 19 | 1009.4 |
| 20260505200036 | 27 | 360 | 17.7 | 40.2 | 0.00 | 0.00 | 0.00 | 19 | 1009.0 |
| 20260505195810 | 27 | 223 | 9.7 | 37.0 | 0.00 | 0.00 | 0.00 | 19 | 1009.6 |
| 20260505195321 | 27 | 360 | 17.7 | 37.0 | 0.00 | 0.00 | 0.00 | 20 | 1009.4 |
| 20260505194842 | 27 | 216 | 17.7 | 38.6 | 0.00 | 0.00 | 0.00 | 19 | 1009.4 |
| 20260505194535 | 27 | 198 | 19.3 | 38.6 | 0.00 | 0.00 | 0.00 | 19 | 1009.0 |
| 20260505194310 | 27 | 360 | 14.5 | 38.6 | 0.00 | 0.00 | 0.00 | 19 | 1009.5 |
| 20260505193837 | 27 | 360 | 19.3 | 37.0 | 0.00 | 0.00 | 0.00 | 19 | 1009.4 |
| 20260505193321 | 27 | 205 | 14.5 | 35.4 | 0.00 | 0.00 | 0.00 | 19 | 1009.6 |
| 20260505193036 | 27 | 360 | 14.5 | 35.4 | 0.00 | 0.00 | 0.00 | 19 | 1009.1 |
| 20260505192811 | 27 | 223 | 17.7 | 35.4 | 0.00 | 0.00 | 0.00 | 19 | 1009.5 |
| 20260505192338 | 27 | 161 | 14.5 | 33.8 | 0.00 | 0.00 | 0.00 | 20 | 1009.6 |
| 20260505191821 | 27 | 247 | 17.7 | 35.4 | 0.00 | 0.00 | 0.00 | 19 | 1009.7 |
| 20260505191506 | 27 | 175 | 17.7 | 35.4 | 0.00 | 0.00 | 0.00 | 19 | 1009.3 |
| 20260505191330 | 27 | 155 | 17.7 | 41.8 | 0.00 | 0.00 | 0.00 | 19 | 1009.7 |
| 20260505190815 | 27 | 360 | 16.1 | 41.8 | 0.00 | 0.00 | 0.00 | 19 | 1009.7 |
| 20260505190311 | 27 | 253 | 14.5 | 38.6 | 0.00 | 0.00 | 0.00 | 19 | 1009.9 |
| 20260505190057 | 27 | 180 | 19.3 | 38.6 | 0.00 | 0.00 | 0.00 | 19 | 1009.5 |
| 20260505185812 | 27 | 360 | 16.1 | 35.4 | 0.00 | 0.00 | 0.00 | 19 | 1009.9 |
| 20260505185317 | 27 | 176 | 17.7 | 35.4 | 0.00 | 0.00 | 0.00 | 19 | 1010.0 |
| 20260505184828 | 27 | 188 | 14.5 | 32.2 | 0.00 | 0.00 | 0.00 | 20 | 1009.9 |
| 20260505184512 | 27 | 231 | 14.5 | 35.4 | 0.00 | 0.00 | 0.00 | 20 | 1009.7 |
| 20260505184312 | 27 | 208 | 16.1 | 35.4 | 0.00 | 0.00 | 0.00 | 20 | 1010.0 |
| 20260505183816 | 27 | 360 | 17.7 | 32.2 | 0.00 | 0.00 | 0.00 | 21 | 1010.1 |
| 20260505183321 | 27 | 243 | 12.9 | 32.2 | 0.00 | 0.00 | 0.00 | 23 | 1010.1 |